createdAt,value
2019-03-17T04:39:05.445Z,11.30
2019-03-17T04:41:39.468Z,10.25
2019-03-17T04:44:21.551Z,12.95
2019-03-17T04:49:32.911Z,16.55
2019-03-17T04:52:03.357Z,8.90
2019-03-17T04:54:35.670Z,3.50
2019-03-17T04:59:37.145Z,3.40
2019-03-17T05:20:00.458Z,2.30
2019-03-17T05:22:34.343Z,3.90
2019-03-17T05:25:05.687Z,5.95
2019-03-17T05:27:35.711Z,2.85
2019-03-17T05:30:12.076Z,3.90
2019-03-17T05:32:44.102Z,3.47
2019-03-17T05:40:14.704Z,1.77
2019-03-17T05:42:44.916Z,1.40
2019-03-17T05:45:14.266Z,2.47
2019-03-17T05:47:46.779Z,1.50
2019-03-17T08:25:27.754Z,5.93
2019-03-17T08:27:57.646Z,8.43
2019-03-17T08:30:28.193Z,1.67
2019-03-17T08:32:58.489Z,3.00
2019-03-17T08:35:28.363Z,5.15
2019-03-17T11:23:22.800Z,2.45
2019-03-17T20:44:53.658Z,7.10
2019-03-17T20:52:24.377Z,5.00
2019-03-17T21:04:51.374Z,3.10
2019-03-17T21:12:22.898Z,7.60
2019-03-17T21:17:24.760Z,3.20
2019-03-17T21:47:17.286Z,3.47
2019-03-17T21:54:43.466Z,5.25
2019-03-17T22:02:16.670Z,2.58
2019-03-17T22:04:46.092Z,2.27
2019-03-17T22:07:15.395Z,2.55
2019-03-17T22:09:45.183Z,4.30
2019-03-17T22:17:11.402Z,2.85
2019-03-17T22:19:40.771Z,3.60
2019-03-17T22:22:10.049Z,2.65
2019-03-17T22:24:40.574Z,2.08
2019-03-17T22:27:11.403Z,3.10
2019-03-17T22:29:40.708Z,2.98
2019-03-17T22:32:09.942Z,3.35
2019-03-17T22:34:39.270Z,2.83
2019-03-17T22:37:10.826Z,3.08
2019-03-17T22:39:40.200Z,2.58
2019-03-17T22:42:09.499Z,3.75
2019-03-17T22:44:38.791Z,2.83
2019-03-17T22:47:11.442Z,3.72
2019-03-17T22:49:40.742Z,2.40
2019-03-17T22:52:10.043Z,6.28
2019-03-17T22:54:39.337Z,4.22
2019-03-17T22:57:10.009Z,2.90
2019-03-17T22:59:41.747Z,3.33
2019-03-17T23:02:11.143Z,2.70
2019-03-17T23:04:40.564Z,5.70
2019-03-17T23:07:11.756Z,2.60
2019-03-17T23:09:41.133Z,5.12
2019-03-17T23:12:10.483Z,2.75
2019-03-17T23:17:08.073Z,3.60
2019-03-17T23:19:38.438Z,3.45
2019-03-17T23:22:07.693Z,2.53
2019-03-17T23:59:22.004Z,6.60
